Date,TemperatureHighF,TemperatureAvgF,TemperatureLowF,DewpointHighF,DewpointAvgF,DewpointLowF,HumidityHigh,HumidityAvg,HumidityLow,PressureMaxIn,PressureMinIn,WindSpeedMaxMPH,WindSpeedAvgMPH,GustSpeedMaxMPH,PrecipitationSumIn
2013-1-2,26.7,16.9,2.2,20.6,11.2,-2.8,91,79,60,30.27,29.98,8,2,16,0.00
2013-1-3,14.0,4.9,-10.3,9.8,-1.1,-14.0,86,76,62,30.30,30.01,1,0,5,0.00
2013-1-4,36.8,27.0,13.8,27.6,21.1,10.4,97,80,64,30.00,29.85,11,3,22,0.00
2013-1-5,38.0,32.3,21.1,28.9,23.6,18.4,89,71,46,30.26,29.92,13,4,19,0.02
2013-1-6,26.3,23.6,21.3,25.6,22.0,18.8,97,93,90,30.19,30.06,3,0,7,0.00
2013-1-7,30.4,22.6,11.2,24.1,18.5,9.6,93,84,74,30.41,30.34,13,2,17,0.01
2013-1-8,39.5,20.3,4.3,28.9,16.6,2.7,96,86,65,30.39,30.30,5,0,8,0.02
2013-1-9,43.9,25.9,10.5,35.0,22.6,9.6,98,88,61,30.39,30.00,21,2,26,0.00
2013-1-10,44.2,36.9,25.0,34.8,27.7,22.5,90,70,52,30.58,30.19,13,2,22,0.02
2013-1-11,37.9,29.4,21.6,37.9,28.3,20.3,100,96,86,30.55,30.14,7,1,15,0.19
2013-1-12,42.9,39.1,35.0,42.9,39.1,35.0,100,100,100,30.17,30.10,8,1,13,0.01
2013-1-13,45.4,40.5,35.6,45.4,40.5,35.6,100,100,100,30.14,29.94,13,2,17,0.01
2013-1-14,44.8,44.0,43.8,44.8,44.0,43.8,100,100,100,30.31,29.87,12,4,20,0.09
2013-1-15,43.8,12.1,0.0,43.8,12.1,0.0,100,28,100,30.35,30.22,3,1,3,0.00
2013-1-16,0.0,0.0,0.0,0.0,0.0,0.0,0,0,100,30.22,29.82,0,0,0,0.00
2013-1-17,0.0,0.0,0.0,0.0,0.0,0.0,0,0,100,30.16,29.83,0,0,0,0.00
2013-1-18,0.0,0.0,0.0,0.0,0.0,0.0,0,0,100,30.39,30.11,0,0,0,0.00
2013-1-21,0.0,0.0,0.0,0.0,0.0,0.0,0,0,100,30.06,29.79,0,0,0,0.00
2013-1-22,0.0,0.0,0.0,0.0,0.0,0.0,0,0,100,29.94,29.77,0,0,0,0.00
2013-2-4,26.7,20.0,13.1,11.1,8.9,6.2,86,63,45,29.96,29.84,10,2,17,0.00
2013-2-5,27.5,19.4,10.5,16.6,11.4,7.9,90,72,50,30.04,29.90,4,0,9,0.00
2013-2-6,33.3,25.2,16.3,25.9,14.1,0.4,91,66,30,30.37,29.90,17,3,22,0.00
2013-2-7,24.7,17.3,10.4,8.6,5.2,2.7,84,60,43,30.57,30.38,8,3,12,0.00
2013-2-8,28.7,25.9,22.9,25.0,23.3,20.9,94,90,84,30.14,29.86,10,5,14,0.00
2013-2-9,28.4,18.4,-0.9,21.9,9.9,-4.3,93,72,37,30.39,29.87,12,4,19,0.13
2013-2-10,27.2,8.1,-9.4,7.7,-1.1,-13.1,86,69,36,30.54,30.31,4,1,6,0.16
2013-2-11,39.3,29.6,10.5,36.1,25.9,5.8,96,86,69,30.30,29.66,19,4,19,0.13
2013-2-12,37.7,35.5,32.2,30.6,28.7,26.3,80,76,71,29.93,29.68,20,6,26,0.00
2013-2-13,38.7,32.3,27.4,27.2,24.5,20.5,86,74,49,29.90,29.74,5,2,10,0.00
2013-2-14,37.9,29.6,18.6,25.5,22.8,16.7,93,77,56,29.95,29.74,9,2,14,0.00
2013-2-15,45.2,36.2,27.7,30.5,26.3,22.9,91,69,46,30.00,29.88,14,4,19,0.00
2013-2-16,34.2,29.9,24.0,24.5,16.9,9.8,72,58,44,30.01,29.88,13,4,16,0.00
2013-2-17,26.7,20.4,12.5,10.6,3.6,-1.0,58,48,34,29.94,29.69,17,7,24,0.00
2013-2-18,26.7,16.8,6.9,10.3,1.9,-2.8,74,53,35,30.22,29.96,15,5,23,0.00
2013-2-19,41.0,28.2,15.6,33.4,20.7,10.0,97,75,49,30.17,29.63,18,3,29,0.14
2013-2-20,32.4,27.5,23.9,26.9,17.6,12.3,80,67,48,29.88,29.66,15,7,31,0.00
2013-2-21,24.4,21.0,18.1,17.7,11.3,7.3,83,66,53,30.39,29.87,15,6,21,0.00
2013-2-22,36.3,28.4,18.0,25.1,20.0,14.5,86,71,58,30.44,30.25,9,2,12,0.00
2013-2-23,35.4,33.6,32.6,33.0,29.7,25.5,97,86,71,30.24,29.89,7,2,13,0.05
2013-2-24,37.8,33.7,32.1,35.0,30.8,26.1,97,89,75,29.97,29.78,10,2,19,0.13
2013-2-25,41.3,33.0,23.0,31.3,27.0,21.3,96,80,57,30.25,29.98,6,1,7,0.01
2013-2-26,43.6,33.2,22.1,33.3,27.2,20.6,97,80,58,30.32,30.06,10,2,14,0.00
2013-2-27,41.1,36.0,31.9,37.3,33.3,26.2,96,90,65,30.05,29.59,15,4,24,0.69
2013-2-28,43.7,36.6,32.5,37.5,34.3,31.7,98,92,74,29.61,29.56,5,1,6,0.10
2013-3-1,40.3,34.8,32.0,33.4,31.8,26.8,96,89,72,29.78,29.61,7,2,13,0.01
2013-3-2,37.1,30.6,24.9,26.9,25.3,22.1,93,81,66,29.79,29.72,11,4,14,0.01
2013-3-3,32.7,26.2,21.5,24.0,20.5,17.2,88,79,67,29.78,29.69,10,5,21,0.09
2013-3-4,35.0,28.8,24.9,22.7,20.7,18.7,78,72,58,29.91,29.76,14,5,21,0.02
2013-3-5,41.9,32.4,27.7,28.1,24.2,21.1,88,72,56,30.09,29.92,8,3,13,0.00
2013-3-6,42.1,35.2,28.3,32.4,27.7,24.0,90,75,62,30.14,30.05,15,6,21,0.00
2013-3-7,39.5,34.4,30.2,31.1,26.4,22.5,96,74,55,30.17,30.11,11,5,17,0.00
2013-3-8,42.6,33.1,26.1,32.9,28.9,24.4,95,85,61,30.31,30.12,11,2,13,0.50
2013-3-9,51.6,33.5,19.0,29.8,25.0,17.3,95,74,39,30.36,30.28,4,1,8,0.00
2013-3-10,52.9,38.6,22.0,32.4,26.4,20.4,94,66,37,30.36,30.19,12,4,19,0.00
2013-3-11,49.0,43.4,36.4,41.1,35.6,31.4,84,74,62,30.22,29.99,13,6,22,0.00
2013-3-12,52.7,47.7,38.3,51.2,44.4,33.0,95,89,81,30.00,29.68,23,8,32,0.83
2013-3-13,46.0,37.1,30.0,31.7,27.5,22.1,95,71,43,29.87,29.78,10,3,21,0.01
2013-3-14,32.5,26.9,23.9,21.7,15.0,8.9,79,61,47,29.92,29.82,20,7,26,0.00
2013-3-15,35.7,28.7,17.4,31.9,19.6,9.3,89,69,54,29.96,29.65,17,4,21,0.00
2013-3-16,36.0,28.5,19.0,26.6,16.6,13.1,87,62,40,29.92,29.78,7,3,12,0.01
2013-3-17,36.1,27.5,18.5,16.4,9.6,4.2,74,49,30,30.34,29.92,16,5,21,0.00
2013-3-18,36.4,25.7,12.2,26.9,11.3,4.9,95,58,29,30.47,30.13,11,2,14,0.00
2013-3-19,33.6,30.2,26.6,32.2,28.8,23.5,97,94,88,30.10,29.72,5,2,14,0.21
2013-3-20,36.4,27.5,17.1,27.0,21.1,15.4,94,78,58,29.81,29.76,19,4,23,0.29
2013-3-21,35.9,26.3,14.1,20.9,16.4,11.5,93,68,44,29.82,29.65,10,3,14,0.28
2013-3-22,35.7,27.6,18.3,25.4,20.0,12.7,84,73,57,29.82,29.69,19,4,25,0.02
2013-3-23,28.4,27.3,25.9,25.0,23.9,22.8,88,87,85,29.81,29.80,6,3,9,0.00
2013-4-24,71.4,68.3,62.8,50.5,48.3,44.6,64,49,42,29.81,29.67,16,9,20,0.07
2013-4-25,57.6,47.5,36.9,48.4,33.3,27.8,84,60,34,30.26,29.79,17,5,29,0.01
2013-4-26,57.4,44.8,32.3,39.2,32.6,28.7,91,66,35,30.45,30.26,10,3,16,0.00
2013-4-27,64.4,47.8,29.2,39.4,32.1,27.0,92,60,26,30.45,30.27,6,1,11,0.00
2013-4-28,72.9,55.6,34.5,41.2,37.1,33.0,94,56,26,30.31,30.09,10,3,23,0.00
2013-4-29,59.8,56.1,52.5,48.5,41.0,32.1,80,58,39,30.21,30.15,13,5,17,0.01
2013-4-30,72.8,59.7,47.6,48.4,44.7,35.0,94,61,31,30.29,30.21,9,3,15,0.02
2013-5-1,76.6,61.9,41.0,45.5,36.8,29.7,80,43,22,30.43,30.29,9,3,12,0.00
2013-5-2,81.0,64.8,42.4,50.7,42.5,36.2,89,49,23,30.45,30.24,16,3,24,0.00
2013-5-3,72.6,61.5,48.9,43.6,35.5,27.9,73,40,22,30.47,30.29,12,4,18,0.00
2013-5-4,76.5,60.7,40.3,47.9,42.2,33.2,93,56,27,30.34,30.15,8,3,15,0.00
2013-5-5,76.6,61.5,42.2,44.3,38.9,32.3,93,49,21,30.27,30.11,7,3,16,0.00
2013-5-6,76.0,59.4,41.2,46.2,38.2,19.2,93,53,12,30.24,30.06,7,2,13,0.00
2013-5-7,80.7,63.7,42.4,56.7,48.0,40.8,94,62,28,30.15,30.01,10,3,13,0.00
2013-5-8,72.0,63.4,52.1,61.8,57.1,50.7,97,81,58,30.13,29.97,9,2,16,0.20
2013-5-9,71.9,60.4,49.1,57.2,53.9,48.6,99,81,51,29.99,29.84,10,2,12,0.01
2013-5-10,76.9,65.8,52.5,57.4,54.7,51.1,96,70,46,29.96,29.79,10,3,20,0.00
2013-5-11,69.3,62.4,55.8,64.3,58.3,49.7,95,87,63,29.81,29.64,15,4,19,0.27
2013-5-12,58.7,52.9,43.2,49.7,39.5,27.3,89,63,34,29.85,29.66,11,4,23,0.01
2013-5-13,49.2,43.3,34.3,33.3,30.7,28.0,85,62,48,30.08,29.85,13,5,19,0.00
2013-5-14,57.2,44.7,31.7,36.2,32.1,28.6,90,64,34,30.11,30.00,7,2,17,0.00
2013-5-15,64.0,46.8,29.4,52.5,40.3,28.1,95,80,48,30.04,29.60,9,3,26,0.19
2013-5-16,78.1,62.3,41.0,47.5,41.6,32.9,96,53,23,29.85,29.67,25,5,40,0.00
2013-5-17,70.1,57.4,44.2,45.6,41.8,38.1,89,60,31,30.20,29.86,8,3,13,0.00
2013-5-18,72.4,58.2,38.9,48.9,43.5,37.6,95,63,31,30.30,30.19,8,2,18,0.00
2013-5-19,59.6,55.3,44.7,56.3,52.6,43.6,96,91,78,30.28,30.15,11,3,13,0.19
2013-5-20,80.7,66.0,56.4,66.6,60.3,55.0,97,83,56,30.15,29.90,9,3,13,0.00
2013-5-21,88.8,71.4,57.5,68.3,63.0,56.7,98,78,43,29.93,29.75,9,3,14,0.56
2013-5-22,79.0,68.0,62.5,71.2,65.9,61.5,98,93,77,29.86,29.75,14,3,27,0.93
2013-5-23,77.2,68.9,63.5,69.6,66.1,62.3,98,91,72,29.80,29.71,13,4,21,0.20
2013-5-24,63.1,52.2,44.0,61.9,51.0,42.9,98,96,93,30.00,29.64,11,3,21,0.04
2013-5-25,47.2,44.8,43.4,44.9,43.0,40.9,96,93,88,29.99,29.93,13,3,16,0.03
2013-5-26,59.0,50.3,42.3,45.2,42.1,40.4,95,75,51,30.11,29.88,15,5,23,0.03
2013-5-27,70.0,57.6,41.5,45.8,40.2,35.6,96,56,31,30.19,30.09,18,6,21,0.03
2013-5-28,71.7,57.3,39.7,55.7,45.2,38.1,95,68,36,30.22,30.10,16,4,19,0.01
2013-5-29,77.5,64.6,58.2,69.6,61.8,56.0,97,91,75,30.11,29.92,14,5,21,0.02
2013-5-30,86.9,73.0,59.5,70.0,65.5,58.9,99,80,52,30.08,30.01,12,3,18,0.03
2013-5-31,92.5,76.9,61.2,72.0,66.8,60.6,98,75,39,30.09,29.89,8,3,15,0.01
2013-6-1,92.0,78.7,63.9,71.5,67.5,63.0,97,71,41,29.94,29.78,10,3,19,0.00
2013-6-2,86.3,74.2,67.5,72.7,69.1,65.8,96,85,64,29.80,29.66,18,3,21,0.00
2013-6-3,68.9,63.1,51.3,67.7,53.3,38.5,97,72,49,29.92,29.79,18,6,21,0.01
2013-6-4,73.0,59.2,44.9,46.9,44.0,41.8,89,60,35,30.11,29.92,11,4,19,0.00
2013-6-5,75.2,61.4,47.3,52.8,46.8,41.6,88,62,32,30.20,30.08,7,2,15,0.00
2013-6-6,72.7,62.0,53.8,56.5,51.1,47.0,96,69,42,30.13,30.02,13,3,19,0.00
2013-6-7,57.5,56.1,54.6,56.7,55.3,53.8,98,97,95,30.03,29.82,7,3,10,1.26
2013-6-8,70.0,61.3,54.0,61.7,57.6,53.2,98,88,75,30.02,29.72,8,3,19,0.13
2013-6-9,76.7,65.9,53.4,59.7,57.2,52.3,97,76,52,30.16,30.03,12,4,16,0.00
2013-6-10,65.9,60.6,52.1,64.2,58.7,51.3,98,94,80,30.17,29.89,8,2,10,0.62
2013-6-11,66.3,61.6,59.0,63.8,60.1,57.0,98,95,86,29.87,29.56,11,3,19,1.58
2013-6-12,74.4,63.6,55.7,58.5,55.2,53.1,96,76,50,29.84,29.62,18,5,18,0.00
2013-6-13,58.9,55.8,50.0,58.0,54.9,49.5,98,97,96,29.82,29.67,8,2,10,1.15
2013-6-14,75.3,63.0,53.7,65.2,58.3,53.2,98,86,55,29.84,29.69,9,2,12,0.12
2013-6-15,76.2,65.5,53.2,57.4,52.1,47.7,96,66,40,29.97,29.86,14,4,22,0.00
2013-6-16,70.7,62.0,51.1,63.8,56.9,49.2,94,84,63,29.94,29.69,14,3,17,0.05
2013-6-17,82.9,68.9,56.6,65.4,60.2,56.0,98,76,47,29.90,29.77,13,3,19,0.01
2013-6-18,63.6,59.4,52.7,57.3,55.2,51.6,96,86,74,29.96,29.89,10,3,14,0.00
2013-6-19,72.1,59.7,44.9,52.5,48.2,44.1,97,70,39,30.16,29.96,9,2,13,0.01
2013-6-20,79.0,63.1,45.1,59.5,50.7,43.8,96,69,37,30.26,30.16,10,2,18,0.00
2013-6-21,84.2,68.1,53.3,60.9,54.3,45.6,97,68,27,30.25,30.17,10,2,12,0.00
2013-6-22,85.7,72.6,56.9,67.9,62.9,55.8,96,74,51,30.19,30.04,9,3,17,0.00
2013-6-23,92.9,76.8,67.0,74.8,67.2,62.7,88,73,51,30.09,29.94,9,4,15,0.00
2013-6-24,90.5,76.6,67.0,73.6,68.8,65.5,96,79,53,30.00,29.88,10,2,15,0.15
2013-6-25,87.7,73.5,64.3,75.4,69.1,63.4,98,87,62,29.96,29.74,8,2,26,0.26
2013-6-26,81.0,73.6,68.1,73.2,69.6,67.2,98,88,69,29.79,29.74,7,2,10,0.03
2013-6-27,86.3,75.0,63.9,72.9,68.1,63.3,99,81,51,29.79,29.61,8,2,11,0.07
2013-6-28,77.5,72.6,67.3,70.8,67.4,65.7,97,84,69,29.59,29.33,17,6,28,0.82
2013-6-29,80.3,71.8,63.3,70.6,66.6,62.7,98,84,65,29.66,29.46,9,2,14,0.09
2013-6-30,85.0,73.3,62.8,71.1,67.3,61.9,97,82,60,29.89,29.66,7,2,18,0.00
2013-7-1,75.8,70.3,67.3,71.4,68.0,66.2,97,93,84,30.01,29.90,8,3,13,0.14
2013-7-2,84.0,70.6,64.6,76.8,68.8,63.7,98,95,79,30.10,30.01,14,3,21,1.04
2013-7-3,87.1,77.5,69.1,76.6,72.7,68.8,99,86,67,30.16,30.08,11,3,14,0.01
2013-7-4,91.0,80.7,69.9,76.8,73.2,69.0,98,80,55,30.18,30.04,11,3,16,0.00
2013-7-5,91.2,80.2,71.2,77.6,74.0,70.4,98,83,60,30.14,29.99,9,2,17,0.05
2013-7-6,86.0,77.3,69.9,73.2,70.0,65.7,98,80,51,30.09,29.99,10,3,14,0.01
2013-7-7,89.9,77.2,68.0,76.5,71.6,66.6,96,84,57,30.03,29.89,10,2,13,0.15
2013-7-8,84.8,76.1,71.3,72.8,70.6,68.7,97,84,61,30.00,29.92,13,3,15,0.08
2013-7-9,86.5,77.7,68.7,72.3,70.2,67.8,97,79,60,30.06,29.94,7,2,10,0.00
2013-7-10,83.1,76.8,71.2,76.1,72.9,69.1,96,88,73,29.96,29.74,9,3,16,0.05
2013-7-11,83.2,75.3,66.6,74.6,66.3,61.5,97,75,48,29.97,29.73,12,4,17,0.02
2013-7-12,82.7,71.6,61.1,67.4,63.2,59.1,93,76,54,30.16,29.97,10,3,13,0.00
2013-7-13,79.6,71.4,64.8,71.4,65.3,60.0,95,81,71,30.27,30.16,6,2,8,0.00
2013-7-14,90.5,78.2,66.3,75.8,70.8,65.4,98,81,50,30.31,30.19,9,2,12,0.00
2013-7-15,92.8,81.0,71.4,74.4,70.6,67.4,97,73,44,30.22,30.10,6,2,12,0.00
2013-7-16,93.3,80.2,67.6,76.1,70.1,65.2,93,73,42,30.20,30.12,6,2,10,0.00
2013-7-17,93.8,81.8,69.2,75.6,71.9,68.0,97,75,47,30.18,29.99,10,3,14,0.00
2013-7-18,93.3,84.0,76.7,75.8,73.8,71.7,90,73,52,30.02,29.90,11,4,16,0.00
2013-7-19,96.0,84.0,71.9,75.9,72.1,66.7,95,71,44,29.91,29.68,11,4,22,0.13
2013-7-20,85.3,75.1,68.4,72.5,68.0,63.3,96,80,59,29.81,29.68,10,2,20,0.00
2013-7-21,83.5,72.6,62.2,69.7,63.5,59.9,96,75,45,29.97,29.83,8,2,12,0.00
2013-7-22,84.7,71.3,61.6,73.0,65.1,58.9,96,82,57,30.00,29.80,7,2,21,0.65
2013-7-23,81.8,73.5,68.7,73.1,69.9,67.8,98,89,69,29.81,29.54,7,2,12,0.66
2013-7-24,76.0,69.8,58.1,67.7,60.2,51.2,98,73,53,30.01,29.58,12,4,17,0.00
2013-7-25,73.7,62.4,49.4,58.1,52.7,47.8,95,73,46,30.10,30.02,16,3,18,0.00
2013-7-26,79.0,66.1,57.0,62.6,58.2,54.4,94,77,53,30.07,29.98,7,2,11,0.00
2013-7-27,83.8,69.3,53.3,65.6,60.0,52.5,97,75,43,30.04,29.92,8,2,14,0.00
2013-7-28,73.5,69.0,64.4,69.3,66.2,62.3,97,91,77,29.96,29.90,9,2,14,0.16
2013-7-29,80.5,71.5,63.5,67.6,61.4,55.2,97,74,42,30.08,29.93,9,3,14,0.00
2013-7-30,78.2,67.2,55.1,62.6,58.1,54.0,96,74,49,30.14,30.06,13,3,16,0.00
2013-7-31,80.9,68.7,54.8,62.7,59.1,53.4,95,74,48,30.14,30.00,8,2,10,0.00
2013-8-1,76.6,65.2,58.2,67.7,62.6,57.4,97,92,74,30.00,29.81,17,5,25,0.18
2013-8-2,80.5,69.2,60.0,64.9,61.4,58.0,98,78,47,29.86,29.79,11,2,20,0.01
2013-8-3,79.6,68.1,58.0,64.2,58.1,53.8,97,74,42,29.86,29.79,14,3,21,0.07
2013-8-4,75.3,66.1,56.0,61.7,55.9,51.7,94,72,48,29.95,29.82,14,3,17,0.00
2013-8-5,77.4,63.7,52.0,55.1,50.9,44.5,94,68,33,30.04,29.95,11,2,16,0.00
2013-8-6,78.7,64.1,48.1,59.4,53.2,47.0,96,72,40,30.11,30.04,5,1,10,0.00
2013-8-7,78.0,69.7,59.5,65.3,61.9,57.8,94,77,63,30.12,30.01,12,5,21,0.00
2013-8-8,85.4,75.9,69.7,73.0,69.3,64.8,94,81,61,30.00,29.92,12,5,19,0.05
2013-8-9,78.2,74.3,71.0,74.2,71.9,68.2,97,92,85,29.93,29.75,10,3,11,0.34
2013-8-10,77.9,69.5,59.5,67.7,57.6,48.6,96,69,38,30.04,29.83,12,4,21,0.00
2013-8-11,77.8,65.0,51.5,58.2,54.3,49.8,95,71,44,30.10,29.99,8,2,14,0.00
2013-8-12,80.9,68.2,55.2,64.1,58.6,53.8,96,74,46,30.03,29.88,11,2,14,0.00
2013-8-13,72.8,66.2,61.9,68.3,64.2,59.2,98,94,83,29.88,29.65,4,1,13,1.45
2013-8-14,71.2,61.0,52.2,57.6,54.3,51.1,97,80,59,30.00,29.75,16,4,21,0.00
2013-8-15,73.5,61.3,51.1,57.5,53.9,50.0,97,79,50,30.11,30.00,12,3,14,0.00
2013-8-16,77.9,63.9,50.5,60.3,54.7,49.7,97,76,40,30.18,30.11,10,2,16,0.00
2013-8-17,80.6,65.6,51.0,62.9,57.2,50.2,97,78,46,30.28,30.19,5,1,9,0.01
2013-8-18,75.6,65.2,56.3,65.6,61.2,55.5,97,88,67,30.27,30.08,5,1,7,0.00
2013-8-19,81.6,69.5,59.0,66.1,61.0,57.7,97,77,49,30.08,29.96,10,2,12,0.00
2013-8-20,83.4,70.0,54.8,66.7,60.9,54.0,97,76,48,30.09,30.00,9,2,15,0.00
2013-8-21,86.0,72.3,60.2,68.5,63.6,58.8,96,77,45,30.15,30.00,8,2,15,0.00
2013-8-22,87.5,73.9,60.3,70.8,65.4,59.5,97,78,46,30.01,29.80,15,3,18,0.28
2013-8-23,78.8,68.3,57.5,66.8,59.8,53.6,97,77,45,30.14,29.87,13,3,17,0.01
2013-8-24,78.2,63.0,48.0,58.9,53.9,46.9,97,76,42,30.32,30.16,7,2,9,0.01
2013-8-25,82.6,65.7,48.7,62.2,56.4,47.9,97,76,40,30.38,30.13,8,2,12,0.00
2013-8-26,79.9,70.0,64.9,69.3,65.7,61.3,97,87,66,30.15,29.88,11,4,16,0.24
2013-8-27,82.2,72.9,66.1,73.5,69.1,65.8,99,89,65,29.90,29.83,5,1,7,0.34
2013-8-28,86.7,72.4,62.2,72.6,67.7,61.6,99,87,55,29.90,29.80,4,1,8,0.00
2013-8-29,80.7,71.7,62.2,68.7,66.2,61.6,98,84,64,30.02,29.91,8,1,10,0.01
2013-8-30,85.0,73.5,63.0,71.9,67.1,61.8,97,82,56,29.98,29.78,9,3,13,0.00
2013-8-31,78.7,72.1,68.0,74.6,70.6,67.4,98,95,87,29.79,29.72,9,2,13,0.93
2013-9-1,82.1,72.8,65.7,73.8,70.2,65.4,99,92,73,29.84,29.77,5,1,7,0.01
2013-9-2,81.6,73.8,67.0,73.9,70.7,65.6,98,90,77,29.79,29.64,9,2,16,0.07
2013-9-3,74.5,66.9,60.4,66.0,61.3,57.8,99,84,57,29.84,29.71,11,2,18,0.01
2013-9-4,77.6,67.0,58.6,60.2,58.1,52.9,96,75,46,29.93,29.84,13,4,18,0.01
2013-9-5,71.3,62.5,48.3,61.0,51.3,41.0,96,71,34,30.17,29.86,13,3,16,0.00
2013-9-6,68.7,55.0,40.8,50.8,44.6,39.4,97,72,39,30.27,30.10,8,2,13,0.00
2013-9-7,73.8,59.2,47.9,60.2,53.9,46.7,96,84,56,30.11,29.86,9,2,11,0.00
2013-9-8,72.0,62.8,46.9,62.7,52.3,41.6,97,72,38,30.11,29.79,10,3,15,0.00
2013-9-9,70.3,55.8,40.5,54.9,47.5,39.4,96,76,49,30.23,30.07,7,2,11,0.00
2013-9-10,76.2,66.1,55.9,71.4,63.8,53.7,98,92,83,30.08,29.97,9,2,15,0.01
2013-9-11,94.6,77.4,64.9,80.2,71.6,64.4,99,85,49,30.05,29.89,8,2,11,0.01
2013-9-12,82.5,73.9,67.9,74.9,70.8,66.7,98,90,75,29.85,29.65,7,3,16,0.01
2013-9-13,69.3,62.2,54.2,66.0,60.3,51.6,97,94,79,29.86,29.61,11,2,15,1.41
2013-9-14,62.5,55.6,50.6,51.7,49.5,45.7,93,81,65,30.09,29.86,8,4,15,0.01
2013-9-15,68.5,55.6,41.8,56.7,50.2,41.0,98,83,58,30.18,30.04,7,2,11,0.00
2013-9-16,65.4,54.9,41.9,55.8,51.1,40.8,97,88,70,30.31,30.02,10,3,17,0.07
2013-9-17,63.9,49.4,36.5,48.2,41.8,35.7,98,79,44,30.48,30.32,9,1,14,0.00
2013-9-18,70.6,52.7,37.9,55.0,46.8,37.4,99,83,49,30.34,30.14,7,1,9,0.01
2013-9-19,75.4,57.1,41.8,58.6,50.4,41.2,98,82,44,30.16,30.03,7,1,8,0.00
2013-9-20,78.6,60.0,44.7,61.3,53.3,44.2,98,82,43,30.08,29.92,10,2,12,0.01
2013-9-21,74.6,65.2,54.0,64.7,59.5,52.9,97,83,59,29.95,29.60,17,7,27,0.46
2013-9-22,62.2,57.2,46.7,60.5,50.9,43.3,97,80,58,29.92,29.58,10,3,18,0.11
2013-9-23,62.7,50.2,40.3,45.2,42.3,39.0,95,76,51,30.08,29.92,8,2,14,0.00
2013-9-24,66.8,50.3,35.9,48.7,42.6,35.1,97,77,49,30.08,29.87,13,3,16,0.00
2013-9-25,69.5,55.2,41.8,54.7,48.4,40.7,96,80,53,29.98,29.88,5,2,10,0.00
2013-9-26,66.7,54.5,42.4,52.8,48.3,41.6,97,81,56,30.15,29.98,10,2,14,0.00
2013-9-27,61.5,51.8,41.0,53.9,48.5,40.2,97,89,74,30.29,30.15,6,1,10,0.00
2013-9-28,72.2,54.4,40.6,57.1,49.1,40.1,98,85,48,30.37,30.24,5,0,8,0.01
2013-9-29,72.7,54.8,42.1,59.9,49.6,41.6,98,85,48,30.23,30.05,4,1,9,0.01
2013-9-30,73.2,55.7,42.7,58.0,50.2,41.9,98,84,49,30.09,29.96,3,0,7,0.00
2013-10-1,77.2,58.7,43.1,61.4,52.5,42.5,98,82,52,30.01,29.88,10,1,16,0.01
2013-10-2,76.1,62.0,50.3,63.8,56.4,49.5,98,83,61,30.00,29.88,14,3,20,0.00
2013-10-3,73.5,59.9,51.2,56.0,51.9,49.0,96,77,42,30.11,30.01,8,2,10,0.01
2013-10-4,60.8,57.4,53.6,58.7,55.8,51.9,97,95,90,30.08,30.03,6,1,8,0.52
2013-10-5,61.2,58.2,56.0,57.0,55.3,53.0,96,90,80,30.10,30.05,5,1,7,0.02
2013-10-6,61.5,56.7,52.1,58.9,54.9,51.0,98,94,86,30.10,30.02,14,2,14,1.35
2013-10-7,73.8,62.0,52.6,67.9,59.5,50.3,98,92,79,30.00,29.61,14,4,27,0.59
2013-10-8,66.0,52.6,42.4,48.6,44.3,39.5,97,77,39,30.37,29.94,11,2,13,0.01
2013-10-9,64.0,48.3,36.4,47.2,41.5,35.6,98,81,40,30.48,30.33,5,1,9,0.00
2013-10-10,60.4,49.8,37.1,50.1,44.6,36.3,97,84,62,30.34,30.16,3,1,7,0.01
2013-10-11,70.6,55.6,45.4,54.0,49.0,44.3,97,81,50,30.17,30.08,8,1,10,0.00
2013-10-12,74.3,54.3,38.5,55.7,47.2,37.7,98,80,48,30.34,30.15,9,2,18,0.00
2013-10-13,68.4,56.1,46.5,52.4,49.6,45.4,96,81,49,30.41,30.30,8,2,15,0.00
2013-10-14,65.6,56.2,45.4,56.3,51.4,44.6,97,85,66,30.34,30.22,6,2,10,0.00
2013-10-15,66.8,59.2,51.9,59.0,55.7,51.1,97,88,75,30.25,30.09,7,1,8,0.00
2013-10-16,64.7,56.1,48.2,56.1,52.0,47.1,98,87,72,30.09,29.84,11,3,16,0.00
2013-10-17,68.6,60.5,54.4,56.4,52.6,47.9,94,77,48,29.87,29.60,8,3,16,0.07
2013-10-18,63.8,54.7,41.3,53.7,46.6,37.1,97,77,40,29.92,29.58,13,4,23,0.18
2013-10-19,64.4,50.2,36.4,49.6,42.1,35.6,97,77,43,29.93,29.68,12,3,23,0.04
2013-10-20,59.0,50.0,42.1,49.3,40.4,35.3,90,71,42,30.01,29.67,16,4,22,0.01
2013-10-21,66.6,53.1,39.1,45.8,41.7,37.8,95,68,41,30.09,29.90,8,3,18,0.00
2013-10-22,54.9,49.4,35.1,49.5,42.1,33.3,93,77,58,29.89,29.75,12,4,17,0.04
2013-10-23,53.9,43.3,34.2,38.5,35.2,32.0,95,75,47,29.81,29.61,8,1,12,0.00
2013-10-24,48.4,41.7,33.3,36.5,33.5,29.6,95,74,48,29.91,29.71,14,4,23,0.00
2013-10-25,48.9,41.2,35.2,35.8,33.1,29.5,91,74,51,30.15,29.92,15,3,19,0.00
2013-10-26,51.7,42.7,31.5,35.6,32.4,26.9,96,70,38,30.14,29.81,14,4,19,0.00
2013-10-27,50.0,44.4,34.2,37.2,35.1,30.9,93,71,52,30.06,29.78,16,4,25,0.00
2013-10-28,57.3,40.3,29.7,39.9,31.8,26.3,96,75,40,30.37,30.06,13,2,24,0.00
2013-10-29,46.7,33.4,23.3,30.0,25.0,21.3,93,74,37,30.47,30.36,9,1,9,0.00
2013-10-30,52.2,38.4,32.1,40.8,34.1,28.2,95,85,65,30.34,30.19,4,1,7,0.02
2013-10-31,59.3,44.9,30.3,58.2,44.0,29.5,98,96,95,30.23,29.65,22,4,22,0.54
2013-11-1,70.8,62.0,50.0,61.7,53.3,41.3,96,76,41,29.67,29.36,22,8,27,0.34
2013-11-2,57.3,46.3,36.2,47.4,41.7,35.4,97,85,67,29.83,29.61,14,2,17,0.00
2013-11-3,43.7,36.4,26.1,37.5,26.2,19.7,87,67,45,30.48,29.84,12,4,17,0.00
2013-11-4,41.7,30.2,20.6,23.6,20.6,18.3,92,70,40,30.69,30.49,8,2,15,0.00
2013-11-5,51.6,37.3,24.1,36.2,30.2,21.3,91,77,55,30.67,30.45,8,2,14,0.00
2013-11-6,60.6,49.2,36.6,47.2,42.4,35.0,94,79,61,30.45,29.94,16,5,20,0.00
2013-11-7,55.3,48.6,38.2,51.6,43.4,33.9,97,83,62,29.92,29.76,12,4,19,0.24
2013-11-8,44.0,38.2,33.0,35.9,31.7,24.2,92,78,52,30.15,29.87,18,5,24,0.00
2013-11-9,43.0,35.2,26.7,33.4,29.1,24.2,90,79,64,30.23,29.93,6,1,12,0.00
2013-11-10,48.6,41.4,36.2,42.4,36.5,30.4,95,83,66,29.97,29.76,15,4,24,0.10
2013-11-11,46.6,42.2,35.6,37.0,31.4,28.6,81,66,55,30.13,29.90,10,4,19,0.01
2013-11-12,41.7,31.3,22.7,37.5,22.3,16.7,89,70,55,30.27,29.93,9,4,17,0.01
2013-11-13,36.6,28.3,19.9,21.7,16.7,11.4,84,63,36,30.37,30.17,13,3,17,0.00
2013-11-14,49.2,33.9,23.9,28.0,23.6,20.1,90,68,38,30.14,30.06,14,2,20,0.00
2013-11-15,55.3,36.1,22.2,29.4,24.4,20.2,93,68,26,30.18,30.09,6,1,9,0.00
2013-11-16,58.9,42.7,31.7,39.2,33.2,29.4,92,72,42,30.30,30.18,6,1,9,0.00
2013-11-17,60.6,47.9,32.9,57.1,45.8,30.8,98,92,87,30.24,29.68,18,4,27,0.06
2013-11-18,61.4,54.4,40.4,58.1,44.1,32.1,92,69,52,29.73,29.44,22,8,32,0.18
2013-11-19,41.0,35.8,25.0,31.4,23.9,19.9,82,62,50,30.38,29.73,14,5,28,0.00
2013-11-20,38.2,27.1,18.8,20.9,18.8,15.8,89,73,45,30.64,30.40,7,1,11,0.00
2013-11-21,42.5,29.8,16.5,29.4,22.2,14.8,93,75,46,30.64,30.37,6,1,9,0.00
2013-11-22,45.7,39.3,34.7,43.4,37.5,28.5,97,93,76,30.36,29.87,12,2,14,0.08
2013-11-23,44.9,34.5,24.0,38.8,25.4,16.0,86,70,47,30.02,29.82,17,6,23,0.00
2013-11-24,26.1,20.6,14.8,17.3,6.5,3.1,81,55,37,30.31,29.91,21,5,29,0.00
2013-11-25,31.3,22.9,9.9,18.1,11.6,3.2,82,62,52,30.43,30.22,12,4,17,0.00
2013-11-26,33.7,30.7,27.1,31.5,27.3,16.9,97,88,54,30.29,29.98,7,3,15,0.14
2013-11-27,37.8,34.7,32.4,37.3,33.6,29.8,98,96,90,29.93,29.41,11,4,17,1.15
2013-11-28,31.9,24.9,17.8,29.0,15.5,10.4,89,68,46,30.45,29.62,15,5,27,0.00
2013-11-29,31.5,22.8,15.5,18.0,15.7,11.8,93,76,49,30.76,30.45,9,2,13,0.00
2013-11-30,30.1,21.3,9.6,20.5,12.8,7.0,90,71,50,30.80,30.38,7,2,11,0.00
2013-12-1,38.5,31.2,24.5,31.0,26.5,21.6,93,83,70,30.35,30.02,8,1,14,0.00
2013-12-2,37.8,33.4,28.3,33.4,31.0,27.0,95,91,83,30.02,29.90,2,0,4,0.00
2013-12-3,43.4,33.8,26.6,36.5,30.5,25.6,97,88,71,30.01,29.90,9,2,13,0.00
2013-12-4,39.5,29.3,22.3,32.4,25.4,21.1,95,86,64,30.15,30.00,5,1,8,0.00
2013-12-5,52.4,42.4,27.2,50.8,40.3,25.5,96,92,87,30.15,29.86,15,4,28,0.00
2013-12-6,50.0,39.9,32.1,48.1,36.6,27.3,96,88,72,30.18,29.89,8,2,13,0.41
2013-12-7,38.2,32.5,29.0,31.1,26.3,22.7,96,79,60,30.48,30.15,10,3,18,0.03
2013-12-8,30.4,28.3,24.8,23.8,21.6,18.9,90,76,66,30.59,30.44,6,2,9,0.00
2013-12-9,36.1,31.0,25.8,33.9,28.7,19.2,96,91,67,30.43,29.90,7,3,12,0.05
2013-12-10,35.0,30.1,20.7,29.6,23.0,16.5,88,75,61,29.99,29.83,15,4,16,0.00
2013-12-11,30.0,25.2,20.8,22.8,16.9,10.4,88,71,49,30.18,30.01,15,5,25,0.00
2013-12-12,22.3,18.4,12.9,17.6,7.8,4.4,82,63,50,30.34,30.04,8,4,17,0.00
2013-12-13,27.6,21.0,11.2,20.9,11.7,3.4,83,67,53,30.43,29.96,9,4,19,0.00
2013-12-14,12.1,8.6,6.7,2.9,0.7,-0.3,74,70,61,30.61,30.43,10,6,13,0.00
2013-12-16,23.0,15.7,-0.1,13.6,7.7,-3.0,87,71,56,30.24,29.91,15,3,16,0.01
2013-12-17,12.9,2.7,-11.9,10.3,-0.4,-15.6,90,87,83,30.25,30.03,4,1,6,0.00
2013-12-18,31.1,19.5,10.5,23.5,16.2,8.1,91,87,73,30.07,29.97,5,1,11,0.00
2013-12-19,40.7,31.1,23.3,28.1,24.8,20.5,89,78,59,30.09,29.95,8,3,12,0.13
2013-12-20,40.7,34.7,30.9,35.5,31.7,28.0,98,89,70,30.08,29.89,8,1,12,0.21
2013-12-21,42.6,37.0,33.7,41.5,36.5,33.2,99,98,95,29.90,29.83,7,1,11,0.37
2013-12-22,34.3,32.1,29.6,33.8,31.6,29.1,99,98,98,29.93,29.68,10,3,18,0.05
2013-12-23,39.9,36.0,33.8,39.6,34.5,28.0,99,95,76,30.18,29.95,7,2,15,0.12
2013-12-24,33.2,26.0,16.7,25.5,17.8,7.7,91,71,57,30.33,30.11,14,4,17,0.00
2013-12-25,18.8,13.9,7.9,7.9,4.8,1.1,77,67,55,30.56,30.34,7,2,13,0.00
2013-12-26,30.4,24.2,15.0,26.5,19.2,7.9,96,81,68,30.41,30.11,10,3,16,0.00
2013-12-27,33.1,28.1,20.2,26.4,22.3,17.4,93,79,67,30.29,30.20,7,2,12,0.01
2013-12-28,39.2,29.4,23.8,30.5,25.5,21.3,95,86,69,30.20,30.03,6,1,7,0.00
2013-12-29,35.6,29.4,22.7,33.2,27.9,21.5,97,94,86,30.03,29.60,2,0,5,0.52
2013-12-30,36.2,24.7,9.5,35.1,18.2,6.2,97,77,54,30.22,29.65,16,5,22,0.11
2013-12-31,21.1,14.1,7.9,17.0,9.1,4.1,93,81,60,30.21,30.03,9,1,19,0.00
2014-1-1,23.8,14.2,3.3,17.0,9.6,0.6,91,82,60,30.39,30.21,11,1,16,0.03
2014-1-2,11.4,3.0,-2.6,8.0,-0.1,-5.7,88,87,86,30.37,29.96,13,6,17,0.00